createdAt,value
2022-12-17T00:01:21.750Z,37.53
2022-12-17T00:04:07.047Z,37.50
2022-12-17T00:06:54.775Z,37.37
2022-12-17T00:09:43.601Z,36.83
2022-12-17T00:12:32.432Z,35.20
2022-12-17T00:15:17.722Z,35.93
2022-12-17T00:18:03.054Z,35.13
2022-12-17T00:20:49.155Z,36.50
2022-12-17T00:23:37.730Z,36.57
2022-12-17T00:26:23.718Z,36.07
2022-12-17T00:29:11.819Z,36.20
2022-12-17T00:31:57.563Z,35.50
2022-12-17T00:34:42.838Z,35.40
2022-12-17T00:37:31.173Z,35.03
2022-12-17T00:40:16.482Z,33.57
2022-12-17T00:43:01.631Z,34.90
2022-12-17T00:45:48.733Z,34.50
2022-12-17T00:48:37.109Z,32.30
2022-12-17T00:51:22.765Z,34.57
2022-12-17T00:54:08.101Z,33.23
2022-12-17T00:56:53.339Z,32.80
2022-12-17T00:59:41.900Z,34.60
2022-12-17T01:02:27.293Z,34.73
2022-12-17T01:05:13.039Z,31.97
2022-12-17T01:08:00.977Z,33.60
2022-12-17T01:10:46.486Z,33.67
2022-12-17T01:13:36.106Z,32.03
2022-12-17T01:16:31.382Z,34.73
2022-12-17T01:19:17.837Z,31.83
2022-12-17T01:22:06.204Z,33.03
2022-12-17T01:24:54.124Z,32.57
2022-12-17T01:27:44.150Z,30.37
2022-12-17T01:32:57.873Z,33.30
2022-12-17T01:35:43.697Z,31.70
2022-12-17T01:38:35.395Z,32.77
2022-12-17T01:41:22.052Z,31.53
2022-12-17T01:44:07.288Z,31.00
2022-12-17T01:47:00.029Z,32.93
2022-12-17T01:49:46.881Z,30.40
2022-12-17T01:52:35.030Z,32.03
2022-12-17T01:55:23.229Z,32.23
2022-12-17T01:58:09.226Z,29.67
2022-12-17T02:00:54.847Z,31.30
2022-12-17T02:03:42.495Z,29.87
2022-12-17T02:06:34.512Z,29.07
2022-12-17T02:09:26.696Z,31.67
2022-12-17T02:12:26.927Z,30.90
2022-12-17T02:15:37.125Z,28.97
2022-12-17T02:18:31.600Z,30.50
2022-12-17T02:21:19.490Z,27.30
2022-12-17T02:24:26.744Z,29.53
2022-12-17T02:27:18.143Z,29.30
2022-12-17T02:30:11.665Z,29.63
2022-12-17T02:33:00.881Z,29.10
2022-12-17T02:36:03.848Z,29.70
2022-12-17T02:38:50.915Z,30.20
2022-12-17T02:41:58.218Z,29.30
2022-12-17T02:44:45.146Z,29.43
2022-12-17T02:47:34.389Z,29.77
2022-12-17T02:50:20.186Z,30.33
2022-12-17T02:53:07.425Z,30.00
2022-12-17T02:55:54.512Z,28.10
2022-12-17T02:58:40.284Z,29.77
2022-12-17T03:01:26.436Z,29.57
2022-12-17T03:04:11.673Z,28.70
2022-12-17T03:06:57.034Z,31.37
2022-12-17T03:09:42.934Z,29.27
2022-12-17T03:12:28.272Z,28.83
2022-12-17T03:15:13.827Z,30.90
2022-12-17T03:18:03.824Z,27.90
2022-12-17T03:20:48.958Z,30.50
2022-12-17T03:23:39.687Z,30.57
2022-12-17T03:26:25.532Z,29.33
2022-12-17T03:29:10.563Z,30.63
2022-12-17T03:31:56.525Z,29.40
2022-12-17T03:34:41.675Z,30.23
2022-12-17T03:37:27.346Z,30.30
2022-12-17T03:40:13.194Z,29.40
2022-12-17T03:43:01.105Z,28.30
2022-12-17T03:45:57.016Z,30.07
2022-12-17T03:48:44.989Z,28.43
2022-12-17T03:51:52.245Z,28.27
2022-12-17T03:54:37.888Z,29.00
2022-12-17T03:57:25.950Z,29.43
2022-12-17T04:00:11.294Z,29.67
2022-12-17T04:02:56.719Z,28.93
2022-12-17T04:05:42.067Z,29.90
2022-12-17T04:08:27.521Z,29.93
2022-12-17T04:11:12.941Z,29.40
2022-12-17T04:14:00.837Z,29.77
2022-12-17T04:16:48.824Z,28.77
2022-12-17T04:19:36.707Z,29.30
2022-12-17T04:22:25.089Z,28.87
2022-12-17T04:25:10.215Z,28.10
2022-12-17T04:27:57.912Z,28.90
2022-12-17T04:30:46.039Z,29.30
2022-12-17T04:33:37.669Z,29.10
2022-12-17T04:36:23.587Z,30.87
2022-12-17T04:39:09.341Z,29.50
2022-12-17T04:41:57.303Z,28.17
2022-12-17T04:44:42.979Z,27.50
2022-12-17T04:47:28.278Z,28.87
2022-12-17T04:50:14.060Z,29.40
2022-12-17T04:53:01.897Z,28.83
2022-12-17T04:55:47.290Z,30.00
2022-12-17T04:58:35.535Z,28.33
2022-12-17T05:01:20.753Z,29.17
2022-12-17T05:04:06.353Z,29.77
2022-12-17T05:06:52.053Z,28.90
2022-12-17T05:09:39.767Z,28.10
2022-12-17T05:12:25.167Z,29.30
2022-12-17T05:15:10.733Z,31.38
2022-12-17T05:17:57.169Z,28.42
2022-12-17T05:20:47.901Z,28.90
2022-12-17T05:23:33.691Z,30.55
2022-12-17T05:26:26.368Z,29.23
2022-12-17T05:29:15.818Z,29.08
2022-12-17T05:32:01.466Z,28.17
2022-12-17T05:34:46.761Z,30.38
2022-12-17T05:37:32.230Z,28.63
2022-12-17T05:40:17.584Z,27.70
2022-12-17T05:43:18.818Z,29.65
2022-12-17T05:46:05.590Z,29.23
2022-12-17T05:48:52.068Z,28.10
2022-12-17T05:51:40.416Z,27.65
2022-12-17T05:54:26.510Z,27.13
2022-12-17T05:57:12.605Z,27.30
2022-12-17T05:59:57.887Z,28.17
2022-12-17T06:02:43.657Z,28.65
2022-12-17T06:05:30.531Z,27.20
2022-12-17T06:08:46.846Z,28.85
2022-12-17T06:11:32.472Z,28.88
2022-12-17T06:14:17.585Z,29.20
2022-12-17T06:17:03.195Z,31.95
2022-12-17T06:19:48.676Z,31.63
2022-12-17T06:22:34.159Z,27.70
2022-12-17T06:25:19.522Z,29.23
2022-12-17T06:28:04.743Z,29.70
2022-12-17T06:30:50.174Z,29.70
2022-12-17T06:33:36.301Z,29.77
2022-12-17T06:36:23.049Z,29.15
2022-12-17T06:39:09.826Z,29.48
2022-12-17T06:42:02.159Z,30.08
2022-12-17T06:44:49.758Z,27.95
2022-12-17T06:47:35.741Z,27.52
2022-12-17T06:50:21.404Z,28.60
2022-12-17T06:53:06.714Z,28.75
2022-12-17T06:55:52.430Z,27.50
2022-12-17T06:58:40.226Z,27.90
2022-12-17T07:01:25.718Z,28.00
2022-12-17T07:04:10.910Z,29.40
2022-12-17T07:06:56.430Z,27.52
2022-12-17T07:09:41.711Z,27.98
2022-12-17T07:12:29.512Z,26.02
2022-12-17T07:15:28.783Z,28.35
2022-12-17T07:18:21.273Z,28.65
2022-12-17T07:21:12.459Z,28.77
2022-12-17T07:24:00.994Z,26.67
2022-12-17T07:26:49.573Z,26.67
2022-12-17T07:29:51.676Z,26.88
2022-12-17T07:32:39.657Z,26.65
2022-12-17T07:35:26.118Z,28.67
2022-12-17T07:38:24.132Z,26.00
2022-12-17T07:41:09.973Z,27.20
2022-12-17T07:43:55.308Z,26.63
2022-12-17T07:46:43.049Z,26.52
2022-12-17T07:49:30.926Z,26.33
2022-12-17T07:52:16.440Z,26.60
2022-12-17T07:55:01.749Z,25.75
2022-12-17T07:57:49.533Z,26.50
2022-12-17T08:00:35.356Z,26.83
2022-12-17T08:03:21.216Z,26.55
2022-12-17T08:06:06.558Z,25.00
2022-12-17T08:08:54.544Z,26.35
2022-12-17T08:11:40.079Z,25.90
2022-12-17T08:14:25.626Z,26.48
2022-12-17T08:17:10.916Z,26.10
2022-12-17T08:19:56.255Z,23.73
2022-12-17T08:22:41.861Z,23.77
2022-12-17T08:25:29.403Z,23.60
2022-12-17T08:28:48.403Z,23.37
2022-12-17T08:31:23.144Z,23.23
2022-12-17T08:34:08.502Z,24.10
2022-12-17T08:36:53.695Z,25.83
2022-12-17T08:39:41.680Z,23.20
2022-12-17T08:42:27.024Z,24.67
2022-12-17T08:45:12.672Z,23.87
2022-12-17T08:48:03.605Z,24.57
2022-12-17T08:50:49.808Z,26.17
2022-12-17T08:53:37.855Z,23.47
2022-12-17T08:56:24.102Z,24.67
2022-12-17T08:59:09.962Z,25.90
2022-12-17T09:01:55.361Z,25.70
2022-12-17T09:04:40.927Z,24.90
2022-12-17T09:07:28.563Z,25.03
2022-12-17T09:10:13.904Z,26.20
2022-12-17T09:13:04.408Z,24.87
2022-12-17T09:15:50.590Z,25.70
2022-12-17T09:18:40.705Z,24.80
2022-12-17T09:21:27.096Z,25.83
2022-12-17T09:24:12.572Z,23.90
2022-12-17T09:26:58.355Z,24.07
2022-12-17T09:29:46.439Z,24.43
2022-12-17T09:32:31.866Z,22.70
2022-12-17T09:35:19.635Z,25.70
2022-12-17T09:38:24.815Z,23.07
2022-12-17T09:41:10.743Z,22.97
2022-12-17T09:44:13.859Z,23.73
2022-12-17T09:47:33.401Z,25.80
2022-12-17T09:50:25.679Z,24.97
2022-12-17T09:53:11.548Z,25.37
2022-12-17T09:56:09.094Z,27.03
2022-12-17T09:58:59.822Z,26.90
2022-12-17T10:01:53.855Z,27.20
2022-12-17T10:05:03.801Z,26.83
2022-12-17T10:07:57.505Z,26.97
2022-12-17T10:10:51.928Z,27.80
2022-12-17T10:13:41.445Z,27.47
2022-12-17T10:16:57.425Z,26.40
2022-12-17T10:19:55.879Z,26.43
2022-12-17T10:22:43.979Z,25.47
2022-12-17T10:25:41.486Z,26.47
2022-12-17T10:28:37.075Z,26.70
2022-12-17T10:31:49.606Z,26.07
2022-12-17T10:34:39.786Z,25.93
2022-12-17T10:37:37.187Z,24.27
2022-12-17T10:40:38.170Z,25.37
2022-12-17T10:43:41.811Z,24.23
2022-12-17T10:46:29.966Z,23.97
2022-12-17T10:49:42.211Z,23.37
2022-12-17T10:52:46.711Z,24.30
2022-12-17T10:55:46.989Z,23.70
2022-12-17T10:58:39.695Z,24.63
2022-12-17T11:01:30.167Z,26.13
2022-12-17T11:04:18.370Z,27.23
2022-12-17T11:07:07.752Z,26.20
2022-12-17T11:10:09.866Z,26.53
2022-12-17T11:13:02.556Z,27.63
2022-12-17T11:16:02.284Z,24.50
2022-12-17T11:19:29.332Z,30.20
2022-12-17T11:23:02.350Z,25.00
2022-12-17T11:26:31.597Z,25.10
2022-12-17T11:29:18.590Z,25.40
2022-12-17T11:32:45.196Z,23.87
2022-12-17T11:35:42.270Z,25.47
2022-12-17T11:38:48.658Z,26.33
2022-12-17T11:42:41.550Z,26.20
2022-12-17T11:45:47.627Z,23.23
2022-12-17T11:48:54.947Z,23.77
2022-12-17T11:52:15.771Z,25.73
2022-12-17T11:55:19.748Z,23.10
2022-12-17T11:58:23.291Z,23.73
2022-12-17T12:01:50.808Z,23.47
2022-12-17T12:05:05.956Z,24.47
2022-12-17T12:08:05.668Z,24.80
2022-12-17T12:11:20.047Z,24.10
2022-12-17T12:14:25.016Z,24.00
2022-12-17T12:17:35.986Z,22.90
2022-12-17T12:20:43.680Z,22.33
2022-12-17T12:23:48.748Z,23.00
2022-12-17T12:26:46.590Z,22.50
2022-12-17T12:29:59.365Z,23.27
2022-12-17T12:33:06.824Z,24.80
2022-12-17T12:35:58.959Z,22.10
2022-12-17T12:38:51.724Z,21.80
2022-12-17T12:41:52.727Z,22.87
2022-12-17T12:45:06.089Z,20.20
2022-12-17T12:48:28.418Z,19.30
2022-12-17T12:51:33.691Z,21.00
2022-12-17T12:54:49.342Z,17.07
2022-12-17T12:58:14.180Z,15.50
2022-12-17T13:01:12.926Z,13.90
2022-12-17T13:04:01.297Z,14.47
2022-12-17T13:06:46.890Z,14.30
2022-12-17T13:09:17.066Z,13.73
2022-12-17T13:12:02.885Z,13.90
2022-12-17T13:14:52.698Z,14.30
2022-12-17T13:17:27.873Z,16.00
2022-12-17T13:19:57.812Z,13.97
2022-12-17T13:22:24.912Z,16.40
2022-12-17T13:24:56.775Z,17.93
2022-12-17T13:27:35.581Z,17.10
2022-12-17T13:30:17.784Z,13.83
2022-12-17T13:33:13.735Z,16.97
2022-12-17T13:35:43.224Z,14.17
2022-12-17T13:38:39.385Z,14.27
2022-12-17T13:41:14.768Z,18.20
2022-12-17T13:43:51.125Z,15.80
2022-12-17T13:46:27.698Z,13.57
2022-12-17T13:49:00.268Z,13.60
2022-12-17T13:51:35.332Z,14.57
2022-12-17T13:54:05.967Z,16.27
2022-12-17T13:56:37.801Z,15.87
2022-12-17T13:59:09.144Z,14.93
2022-12-17T14:01:49.828Z,14.30
2022-12-17T14:04:28.822Z,15.57
2022-12-17T14:07:06.123Z,14.03
2022-12-17T14:09:40.350Z,15.70
2022-12-17T14:12:23.773Z,15.43
2022-12-17T14:15:01.520Z,15.50
2022-12-17T14:17:35.142Z,15.13
2022-12-17T14:20:10.670Z,14.70
2022-12-17T14:22:51.302Z,14.87
2022-12-17T14:25:23.535Z,16.30
2022-12-17T14:28:33.024Z,14.90
2022-12-17T14:31:28.600Z,14.90
2022-12-17T14:34:14.104Z,16.63
2022-12-17T14:36:43.953Z,18.63
2022-12-17T14:39:34.609Z,17.00
2022-12-17T14:42:26.425Z,16.07
2022-12-17T14:45:02.252Z,15.87
2022-12-17T14:47:38.513Z,15.17
2022-12-17T14:50:28.163Z,14.03
2022-12-17T14:52:58.907Z,16.17
2022-12-17T14:55:55.893Z,16.33
2022-12-17T14:58:25.392Z,16.90
2022-12-17T15:01:00.642Z,15.77
2022-12-17T15:03:34.148Z,16.43
2022-12-17T15:06:07.431Z,17.00
2022-12-17T15:08:43.333Z,17.00
2022-12-17T15:11:14.991Z,17.87
2022-12-17T15:13:44.751Z,18.10
2022-12-17T15:16:13.345Z,19.50
2022-12-17T15:18:40.803Z,19.63
2022-12-17T15:21:13.074Z,18.60
2022-12-17T15:23:43.384Z,18.03
2022-12-17T15:26:11.182Z,19.67
2022-12-17T15:28:38.376Z,19.10
2022-12-17T15:31:08.232Z,21.27
2022-12-17T15:33:35.125Z,20.97
2022-12-17T15:36:03.444Z,19.47
2022-12-17T15:38:30.394Z,18.10
2022-12-17T15:41:00.712Z,19.27
2022-12-17T15:43:27.514Z,18.77
2022-12-17T15:45:54.452Z,20.37
2022-12-17T15:48:23.336Z,18.33
2022-12-17T15:50:50.391Z,19.17
2022-12-17T15:53:17.347Z,18.30
2022-12-17T15:55:44.659Z,20.13
2022-12-17T15:58:14.095Z,19.60
2022-12-17T16:00:44.183Z,21.10
2022-12-17T16:03:14.067Z,20.97
2022-12-17T16:05:41.128Z,21.00
2022-12-17T16:08:07.959Z,17.60
2022-12-17T16:10:34.938Z,19.10
2022-12-17T16:13:03.897Z,19.60
2022-12-17T16:15:30.906Z,19.80
2022-12-17T16:17:57.850Z,18.93
2022-12-17T16:20:27.833Z,19.73
2022-12-17T16:22:56.968Z,19.60
2022-12-17T16:25:23.839Z,20.30
2022-12-17T16:27:50.809Z,19.07
2022-12-17T16:30:18.032Z,19.97
2022-12-17T16:32:44.931Z,21.03
2022-12-17T16:35:11.907Z,18.00
2022-12-17T16:37:38.746Z,19.17
2022-12-17T16:40:06.747Z,20.60
2022-12-17T16:42:36.222Z,20.90
2022-12-17T16:45:03.344Z,22.67
2022-12-17T16:47:30.237Z,22.00
2022-12-17T16:49:57.201Z,22.40
2022-12-17T16:52:24.241Z,22.80
2022-12-17T16:54:51.150Z,21.93
2022-12-17T16:57:18.220Z,21.67
2022-12-17T16:59:47.455Z,21.40
2022-12-17T17:02:18.585Z,21.77
2022-12-17T17:04:45.744Z,21.47
2022-12-17T17:07:12.715Z,20.40
2022-12-17T17:09:42.211Z,18.97
2022-12-17T17:12:11.925Z,18.03
2022-12-17T17:14:40.317Z,22.07
2022-12-17T17:17:07.304Z,20.23
2022-12-17T17:19:34.137Z,22.23
2022-12-17T17:22:00.964Z,19.37
2022-12-17T17:24:30.823Z,23.40
2022-12-17T17:27:00.304Z,20.33
2022-12-17T17:29:29.442Z,21.77
2022-12-17T17:32:16.554Z,23.47
2022-12-17T17:34:43.560Z,21.90
2022-12-17T17:37:13.518Z,19.53
2022-12-17T17:39:42.713Z,21.23
2022-12-17T17:42:09.985Z,21.80
2022-12-17T17:44:38.339Z,20.67
2022-12-17T17:47:05.514Z,18.27
2022-12-17T17:49:35.488Z,19.87
2022-12-17T17:52:11.346Z,20.10
2022-12-17T17:54:43.414Z,20.60
2022-12-17T17:57:10.624Z,19.20
2022-12-17T17:59:39.493Z,19.00
2022-12-17T18:02:11.121Z,19.97
2022-12-17T18:04:38.605Z,19.70
2022-12-17T18:09:55.574Z,21.57
2022-12-17T18:12:41.406Z,18.40
2022-12-17T18:15:14.809Z,20.67
2022-12-17T18:17:45.095Z,20.50
2022-12-17T18:20:13.192Z,18.30
2022-12-17T18:22:40.286Z,19.03
2022-12-17T18:25:07.807Z,19.13
2022-12-17T18:27:35.079Z,20.17
2022-12-17T18:30:02.352Z,19.43
2022-12-17T18:32:29.503Z,20.00
2022-12-17T18:34:56.742Z,19.60
2022-12-17T18:37:23.612Z,18.43
2022-12-17T18:39:53.596Z,18.97
2022-12-17T18:42:41.276Z,20.80
2022-12-17T18:45:12.251Z,17.90
2022-12-17T18:47:40.000Z,18.20
2022-12-17T18:50:07.831Z,18.30
2022-12-17T18:52:39.890Z,20.47
2022-12-17T18:55:10.420Z,21.03
2022-12-17T18:57:41.077Z,24.10
2022-12-17T19:00:09.814Z,19.53
2022-12-17T19:02:37.816Z,19.70
2022-12-17T19:05:07.711Z,20.33
2022-12-17T19:07:35.597Z,20.87
2022-12-17T19:10:06.180Z,20.23
2022-12-17T19:12:35.879Z,21.17
2022-12-17T19:15:03.413Z,22.25
2022-12-17T19:17:33.344Z,22.77
2022-12-17T19:20:02.831Z,20.90
2022-12-17T19:22:32.571Z,21.15
2022-12-17T19:25:03.544Z,21.27
2022-12-17T19:27:33.161Z,22.00
2022-12-17T19:30:00.030Z,20.88
2022-12-17T19:32:29.179Z,20.13
2022-12-17T19:34:55.990Z,19.63
2022-12-17T19:37:25.991Z,19.50
2022-12-17T19:39:52.838Z,19.05
2022-12-17T19:42:25.634Z,19.73
2022-12-17T19:44:56.626Z,19.70
2022-12-17T19:47:24.538Z,19.30
2022-12-17T19:49:54.531Z,17.67
2022-12-17T19:52:24.109Z,19.20
2022-12-17T19:54:51.067Z,18.67
2022-12-17T19:57:18.064Z,18.70
2022-12-17T19:59:45.280Z,18.75
2022-12-17T20:02:17.514Z,18.92
2022-12-17T20:04:48.259Z,17.87
2022-12-17T20:07:15.973Z,18.67
2022-12-17T20:09:44.983Z,18.40
2022-12-17T20:12:12.856Z,18.85
2022-12-17T20:14:40.730Z,18.88
2022-12-17T20:17:07.799Z,18.90
2022-12-17T20:19:35.015Z,18.02
2022-12-17T20:22:06.602Z,17.98
2022-12-17T20:24:33.977Z,19.45
2022-12-17T20:27:03.948Z,16.92
2022-12-17T20:29:33.745Z,19.10
2022-12-17T20:32:02.770Z,17.73
2022-12-17T20:34:33.879Z,18.73
2022-12-17T20:37:01.016Z,18.92
2022-12-17T20:39:28.604Z,17.80
2022-12-17T20:41:57.088Z,17.95
2022-12-17T20:44:24.263Z,17.88
2022-12-17T20:46:51.149Z,18.30
2022-12-17T20:49:23.815Z,18.17
2022-12-17T20:51:50.787Z,18.20
2022-12-17T20:54:19.580Z,18.90
2022-12-17T20:56:49.056Z,17.77
2022-12-17T20:59:18.665Z,17.23
2022-12-17T21:01:50.372Z,18.05
2022-12-17T21:04:21.505Z,17.45
2022-12-17T21:06:48.920Z,18.35
2022-12-17T21:09:19.968Z,18.25
2022-12-17T21:11:47.006Z,17.60
2022-12-17T21:14:17.165Z,18.23
2022-12-17T21:16:47.620Z,17.33
2022-12-17T21:19:18.253Z,17.65
2022-12-17T21:21:45.571Z,18.65
2022-12-17T21:24:17.322Z,16.65
2022-12-17T21:26:47.979Z,17.17
2022-12-17T21:29:21.848Z,17.05
2022-12-17T21:31:52.651Z,18.65
2022-12-17T21:34:22.903Z,17.70
2022-12-17T21:36:51.022Z,17.15
2022-12-17T21:39:20.824Z,17.10
2022-12-17T21:42:08.086Z,16.25
2022-12-17T21:44:38.185Z,15.55
2022-12-17T21:47:07.576Z,18.45
2022-12-17T21:49:36.896Z,16.10
2022-12-17T21:52:07.468Z,15.40
2022-12-17T21:54:40.436Z,15.55
2022-12-17T21:57:07.835Z,14.82
2022-12-17T21:59:43.774Z,16.75
2022-12-17T22:02:11.306Z,15.15
2022-12-17T22:04:38.587Z,16.10
2022-12-17T22:07:13.657Z,17.95
2022-12-17T22:10:01.276Z,16.45
2022-12-17T22:12:54.996Z,15.60
2022-12-17T22:15:25.712Z,15.70
2022-12-17T22:17:57.467Z,15.35
2022-12-17T22:20:25.301Z,14.75
2022-12-17T22:22:54.474Z,15.70
2022-12-17T22:25:21.492Z,16.52
2022-12-17T22:27:48.615Z,15.27
2022-12-17T22:30:36.784Z,16.77
2022-12-17T22:33:13.298Z,15.50
2022-12-17T22:37:59.667Z,15.00
2022-12-17T22:42:06.214Z,15.95
2022-12-17T22:44:46.139Z,15.02
2022-12-17T22:44:51.305Z,14.88
2022-12-17T22:47:16.711Z,15.35
2022-12-17T22:49:44.257Z,15.57
2022-12-17T22:52:14.744Z,15.15
2022-12-17T22:54:47.454Z,16.02
2022-12-17T22:57:37.750Z,16.48
2022-12-17T23:00:29.291Z,15.25
2022-12-17T23:02:56.699Z,13.82
2022-12-17T23:05:28.238Z,15.60
2022-12-17T23:07:55.992Z,15.02
2022-12-17T23:10:28.467Z,16.95
2022-12-17T23:12:58.017Z,14.60
2022-12-17T23:15:33.097Z,15.07
2022-12-17T23:18:06.408Z,15.02
2022-12-17T23:20:34.872Z,16.00
2022-12-17T23:23:04.387Z,15.40
2022-12-17T23:25:33.814Z,15.65
2022-12-17T23:28:00.756Z,16.02
2022-12-17T23:30:27.911Z,15.20
2022-12-17T23:32:54.763Z,12.75
2022-12-17T23:35:23.782Z,13.95
2022-12-17T23:37:50.796Z,14.10
2022-12-17T23:40:17.805Z,14.55
2022-12-17T23:42:44.686Z,13.55
2022-12-17T23:45:12.075Z,14.15
2022-12-17T23:47:40.003Z,13.40
2022-12-17T23:50:09.811Z,12.50
2022-12-17T23:52:39.519Z,13.88
2022-12-17T23:55:07.504Z,12.93
2022-12-17T23:57:34.514Z,13.70
